Time;durP1;ratioP1;P1;durP2;ratioP2;P2;SDS_P1;SDS_P2;PMS_P1;PMS_P2;Temp;Humidity;BMP_temperature;BMP_pressure;BME280_temperature;BME280_humidity;BME280_pressure;Samples;Min_cycle;Max_cycle;Signal;HPM_P1;HPM_P2
2021/06/20 00:01:57;;;;;;;15.52;9.25;;;;;;;;;;5074389;28;20031;-48
2021/06/20 00:04:24;;;;;;;11.55;7.53;;;;;;;;;;5074357;28;20048;-47
2021/06/20 00:06:51;;;;;;;7.70;6.07;;;;;;;;;;5074075;28;20028;-49
2021/06/20 00:09:17;;;;;;;8.90;6.57;;;;;;;;;;5074001;28;20074;-49
2021/06/20 00:11:45;;;;;;;7.88;6.15;;;;;;;;;;5074123;28;20082;-49
2021/06/20 00:14:12;;;;;;;24.23;14.05;;;;;;;;;;5073711;28;20118;-48
2021/06/20 00:16:38;;;;;;;18.38;7.97;;;;;;;;;;5074089;28;20047;-49
2021/06/20 00:19:05;;;;;;;20.65;12.55;;;;;;;;;;5073133;28;20024;-49
2021/06/20 00:21:31;;;;;;;13.13;6.38;;;;;;;;;;5073920;28;20442;-48
2021/06/20 00:23:57;;;;;;;10.77;8.02;;;;;;;;;;5073946;28;20465;-48
2021/06/20 00:26:23;;;;;;;19.50;11.13;;;;;;;;;;5073834;28;20457;-48
2021/06/20 00:28:49;;;;;;;17.73;10.43;;;;;;;;;;5073724;28;20045;-49
2021/06/20 00:31:16;;;;;;;10.43;7.32;;;;;;;;;;5073779;28;20028;-49
2021/06/20 00:33:42;;;;;;;8.30;6.45;;;;;;;;;;5073640;28;20039;-49
2021/06/20 00:36:09;;;;;;;14.13;9.27;;;;;;;;;;5073558;28;20028;-47
2021/06/20 00:38:35;;;;;;;10.77;7.50;;;;;;;;;;5073832;28;20028;-47
2021/06/20 00:41:02;;;;;;;12.80;9.23;;;;;;;;;;5073838;28;20503;-47
2021/06/20 00:43:28;;;;;;;18.08;8.93;;;;;;;;;;5073475;28;20115;-48
2021/06/20 00:45:54;;;;;;;13.13;6.72;;;;;;;;;;5073651;28;20021;-48
2021/06/20 00:48:20;;;;;;;9.77;4.53;;;;;;;;;;5073543;28;20487;-49
2021/06/20 00:50:46;;;;;;;12.23;8.73;;;;;;;;;;5073472;28;20028;-49
2021/06/20 00:53:12;;;;;;;12.82;7.05;;;;;;;;;;5073171;28;20033;-49
2021/06/20 00:55:39;;;;;;;10.30;6.38;;;;;;;;;;5073208;28;20028;-47
2021/06/20 00:58:06;;;;;;;11.30;7.00;;;;;;;;;;5073325;28;20078;-48
2021/06/20 01:00:34;;;;;;;11.77;8.30;;;;;;;;;;5073341;28;20067;-47
2021/06/20 01:03:00;;;;;;;11.80;8.13;;;;;;;;;;5073167;28;20024;-48
2021/06/20 01:05:27;;;;;;;14.60;8.07;;;;;;;;;;5073326;28;20020;-49
2021/06/20 01:07:54;;;;;;;21.05;12.90;;;;;;;;;;5072985;28;20386;-49
2021/06/20 01:10:24;;;;;;;23.75;14.38;;;;;;;;;;5073145;28;20020;-48
2021/06/20 01:12:52;;;;;;;33.67;20.65;;;;;;;;;;5072982;28;20041;-49
2021/06/20 01:15:18;;;;;;;37.33;21.48;;;;;;;;;;5072853;28;20220;-46
2021/06/20 01:17:45;;;;;;;25.73;15.73;;;;;;;;;;5072941;28;20036;-47
2021/06/20 01:20:13;;;;;;;20.50;13.02;;;;;;;;;;5073145;28;20024;-48
2021/06/20 01:22:42;;;;;;;15.55;9.68;;;;;;;;;;5073251;28;20063;-47
2021/06/20 01:25:09;;;;;;;11.82;8.75;;;;;;;;;;5073070;28;20119;-47
2021/06/20 01:27:58;;;;;;;38.78;22.25;;;;;;;;;;5073176;28;20025;-48
2021/06/20 01:30:26;;;;;;;48.75;27.77;;;;;;;;;;5079063;28;20388;-46
2021/06/20 01:32:53;;;;;;;22.90;14.50;;;;;;;;;;5079311;28;20078;-48
2021/06/20 01:35:19;;;;;;;17.67;9.05;;;;;;;;;;5079583;28;20028;-46
2021/06/20 01:37:45;;;;;;;33.53;21.38;;;;;;;;;;5079515;28;20020;-46
2021/06/20 01:40:13;;;;;;;32.65;19.23;;;;;;;;;;5079378;28;20025;-48
2021/06/20 01:42:39;;;;;;;22.25;13.80;;;;;;;;;;5079145;28;20583;-48
2021/06/20 01:45:06;;;;;;;21.23;12.65;;;;;;;;;;5079394;28;20028;-48
2021/06/20 01:47:32;;;;;;;12.20;7.65;;;;;;;;;;5079217;28;20025;-48
2021/06/20 01:49:59;;;;;;;9.32;5.68;;;;;;;;;;5079676;28;20384;-48
2021/06/20 01:52:26;;;;;;;7.70;6.30;;;;;;;;;;5079418;28;20477;-48
2021/06/20 01:54:53;;;;;;;7.05;3.88;;;;;;;;;;5079264;28;20432;-48
2021/06/20 01:57:45;;;;;;;8.88;4.70;;;;;;;;;;5079239;28;20013;-47
2021/06/20 02:00:13;;;;;;;7.43;4.85;;;;;;;;;;5078968;28;20500;-47
2021/06/20 02:02:39;;;;;;;12.52;5.70;;;;;;;;;;5079278;28;20036;-47
2021/06/20 02:05:06;;;;;;;9.73;6.32;;;;;;;;;;5079304;28;20016;-47
2021/06/20 02:07:35;;;;;;;10.32;9.23;;;;;;;;;;5079227;28;20112;-48
2021/06/20 02:10:01;;;;;;;52.00;12.85;;;;;;;;;;5079326;28;20039;-47
2021/06/20 02:12:27;;;;;;;13.38;8.98;;;;;;;;;;5078851;28;20141;-46
2021/06/20 02:14:53;;;;;;;11.60;7.40;;;;;;;;;;5078885;28;20045;-47
2021/06/20 02:17:19;;;;;;;14.77;9.93;;;;;;;;;;5077700;28;20450;-48
2021/06/20 02:19:45;;;;;;;26.33;19.45;;;;;;;;;;5078940;28;20039;-46
2021/06/20 02:22:12;;;;;;;28.92;20.55;;;;;;;;;;5078854;28;20029;-46
2021/06/20 02:24:38;;;;;;;22.35;16.13;;;;;;;;;;5078979;28;20090;-48
2021/06/20 02:27:05;;;;;;;10.27;8.00;;;;;;;;;;5079001;28;20034;-48
2021/06/20 02:29:32;;;;;;;7.55;6.55;;;;;;;;;;5078920;28;20016;-47
2021/06/20 02:31:58;;;;;;;7.88;4.97;;;;;;;;;;5078876;28;20029;-47
2021/06/20 02:34:24;;;;;;;26.58;18.63;;;;;;;;;;5078914;28;20024;-48
2021/06/20 02:36:50;;;;;;;163.75;108.93;;;;;;;;;;5078968;28;20055;-47
2021/06/20 02:39:16;;;;;;;158.07;105.32;;;;;;;;;;5079007;28;20381;-48
2021/06/20 02:41:45;;;;;;;64.80;43.83;;;;;;;;;;5075408;28;20024;-48
2021/06/20 02:44:11;;;;;;;26.77;18.65;;;;;;;;;;5075526;28;20032;-48
2021/06/20 02:46:37;;;;;;;16.58;12.10;;;;;;;;;;5075630;28;20054;-47
2021/06/20 02:49:06;;;;;;;13.57;10.60;;;;;;;;;;5075755;28;20025;-46
2021/06/20 02:51:32;;;;;;;17.80;9.77;;;;;;;;;;5075604;28;20512;-48
2021/06/20 02:53:58;;;;;;;13.40;8.57;;;;;;;;;;5075629;28;20055;-48
2021/06/20 02:56:24;;;;;;;12.38;8.27;;;;;;;;;;5075351;28;20024;-48
2021/06/20 02:58:50;;;;;;;11.95;7.38;;;;;;;;;;5075421;28;20031;-47
2021/06/20 03:01:16;;;;;;;7.35;5.82;;;;;;;;;;5075342;28;20096;-48
2021/06/20 03:03:42;;;;;;;9.52;5.28;;;;;;;;;;5075462;28;20032;-48
2021/06/20 03:06:08;;;;;;;6.72;5.03;;;;;;;;;;5075562;28;20500;-48
2021/06/20 03:08:34;;;;;;;9.02;5.47;;;;;;;;;;5075382;28;20440;-45
2021/06/20 03:11:01;;;;;;;6.07;4.93;;;;;;;;;;5074372;28;20040;-47
2021/06/20 03:13:28;;;;;;;5.55;4.60;;;;;;;;;;5074828;28;20110;-48
2021/06/20 03:15:54;;;;;;;9.75;5.20;;;;;;;;;;5075128;28;20056;-48
2021/06/20 03:18:20;;;;;;;8.25;5.40;;;;;;;;;;5075225;28;20033;-48
2021/06/20 03:20:46;;;;;;;8.15;5.28;;;;;;;;;;5075463;28;20476;-48
2021/06/20 03:23:12;;;;;;;7.32;4.68;;;;;;;;;;5075138;28;20090;-47
2021/06/20 03:25:39;;;;;;;7.05;4.53;;;;;;;;;;5075337;28;20016;-48
2021/06/20 03:28:05;;;;;;;6.63;4.38;;;;;;;;;;5074945;28;20024;-47
2021/06/20 03:30:31;;;;;;;4.93;4.43;;;;;;;;;;5074753;28;20035;-46
2021/06/20 03:32:57;;;;;;;7.68;4.35;;;;;;;;;;5074849;28;20034;-47
2021/06/20 03:35:23;;;;;;;4.32;3.70;;;;;;;;;;5074808;28;20055;-47
2021/06/20 03:37:49;;;;;;;5.38;3.90;;;;;;;;;;5074810;28;20024;-47
2021/06/20 03:40:16;;;;;;;5.57;4.00;;;;;;;;;;5074936;28;20099;-47
2021/06/20 03:42:42;;;;;;;5.65;4.25;;;;;;;;;;5074534;28;20111;-48
2021/06/20 03:45:08;;;;;;;8.02;4.05;;;;;;;;;;5074731;28;20119;-49
2021/06/20 03:47:35;;;;;;;4.28;3.88;;;;;;;;;;5074613;28;20414;-47
2021/06/20 03:50:02;;;;;;;6.43;4.43;;;;;;;;;;5074512;28;20099;-46
2021/06/20 03:52:28;;;;;;;6.65;3.78;;;;;;;;;;5074383;28;20160;-49
2021/06/20 03:54:54;;;;;;;6.60;4.10;;;;;;;;;;5074498;28;20036;-48
2021/06/20 03:57:21;;;;;;;5.63;4.15;;;;;;;;;;5074416;28;20456;-48
2021/06/20 03:59:47;;;;;;;9.32;3.88;;;;;;;;;;5074288;28;20487;-49
2021/06/20 04:02:14;;;;;;;6.15;3.90;;;;;;;;;;5074146;28;20028;-48
2021/06/20 04:04:40;;;;;;;6.13;4.72;;;;;;;;;;5074108;28;20078;-48
2021/06/20 04:07:07;;;;;;;6.47;4.90;;;;;;;;;;5074371;28;20128;-48
2021/06/20 04:09:35;;;;;;;8.40;4.07;;;;;;;;;;5074039;28;20034;-48
2021/06/20 04:12:01;;;;;;;6.95;4.20;;;;;;;;;;5074095;28;20498;-49
2021/06/20 04:14:28;;;;;;;6.50;4.53;;;;;;;;;;5073523;28;20059;-48
2021/06/20 04:16:54;;;;;;;7.45;4.50;;;;;;;;;;5073762;28;20031;-47
2021/06/20 04:19:20;;;;;;;7.18;4.60;;;;;;;;;;5074299;28;20032;-48
2021/06/20 04:21:46;;;;;;;13.02;6.05;;;;;;;;;;5073909;28;20016;-48
2021/06/20 04:24:12;;;;;;;9.30;7.15;;;;;;;;;;5073735;28;20086;-47
2021/06/20 04:26:41;;;;;;;17.83;10.77;;;;;;;;;;5073662;28;20021;-45
2021/06/20 04:29:07;;;;;;;18.40;12.85;;;;;;;;;;5073712;28;20491;-47
2021/06/20 04:31:33;;;;;;;21.48;14.25;;;;;;;;;;5073760;28;20020;-48
2021/06/20 04:33:59;;;;;;;9.75;6.95;;;;;;;;;;5072297;28;20033;-45
2021/06/20 04:36:25;;;;;;;8.88;7.05;;;;;;;;;;5073814;28;20472;-48
2021/06/20 04:38:51;;;;;;;10.23;6.90;;;;;;;;;;5073493;28;20029;-47
2021/06/20 04:41:19;;;;;;;6.93;5.85;;;;;;;;;;5073516;28;20074;-47
2021/06/20 04:46:29;;;;;;;7.47;5.13;;;;;;;;;;5073324;28;20029;-47
2021/06/20 04:49:06;;;;;;;5.93;4.63;;;;;;;;;;5073418;28;20036;-48
2021/06/20 04:51:33;;;;;;;5.30;4.65;;;;;;;;;;5073572;28;20024;-47
2021/06/20 04:53:59;;;;;;;7.50;5.07;;;;;;;;;;5073409;28;20094;-48
2021/06/20 04:56:26;;;;;;;7.45;4.80;;;;;;;;;;5073205;28;20024;-48
2021/06/20 04:58:52;;;;;;;8.73;4.90;;;;;;;;;;5073063;28;20424;-48
2021/06/20 05:01:18;;;;;;;7.07;5.25;;;;;;;;;;5073091;28;20492;-45
2021/06/20 05:03:44;;;;;;;7.32;5.03;;;;;;;;;;5072692;28;20028;-48
2021/06/20 05:06:10;;;;;;;8.02;4.50;;;;;;;;;;5073487;28;20373;-47
2021/06/20 05:08:36;;;;;;;5.32;4.32;;;;;;;;;;5073103;28;20028;-48
2021/06/20 05:11:03;;;;;;;13.45;4.82;;;;;;;;;;5073241;28;20036;-47
2021/06/20 05:13:29;;;;;;;7.57;4.72;;;;;;;;;;5072633;28;20060;-47
2021/06/20 05:15:55;;;;;;;5.05;4.28;;;;;;;;;;5073228;28;20468;-47
2021/06/20 05:18:21;;;;;;;5.03;4.53;;;;;;;;;;5073369;28;20025;-47
2021/06/20 05:20:47;;;;;;;11.15;4.53;;;;;;;;;;5073304;28;20023;-47
2021/06/20 05:23:13;;;;;;;6.18;4.95;;;;;;;;;;5073104;28;20386;-48
2021/06/20 05:25:40;;;;;;;7.43;4.93;;;;;;;;;;5073193;28;20094;-47
2021/06/20 05:28:06;;;;;;;8.80;5.07;;;;;;;;;;5072989;28;20082;-47
2021/06/20 05:30:32;;;;;;;5.25;4.70;;;;;;;;;;5072994;28;20017;-47
2021/06/20 05:32:58;;;;;;;9.73;5.32;;;;;;;;;;5072826;28;20492;-47
2021/06/20 05:35:24;;;;;;;6.75;5.03;;;;;;;;;;5073024;28;20056;-45
2021/06/20 05:37:50;;;;;;;7.70;5.28;;;;;;;;;;5073196;28;20529;-46
2021/06/20 05:40:16;;;;;;;6.20;4.53;;;;;;;;;;5072983;28;20104;-47
2021/06/20 05:42:42;;;;;;;4.53;4.13;;;;;;;;;;5072894;28;20495;-45
2021/06/20 05:45:09;;;;;;;4.53;4.13;;;;;;;;;;5072883;28;20090;-45
2021/06/20 05:47:35;;;;;;;8.40;4.25;;;;;;;;;;5073116;28;20013;-47
2021/06/20 05:50:01;;;;;;;5.07;4.32;;;;;;;;;;5072834;28;20025;-46
2021/06/20 05:52:27;;;;;;;5.43;4.72;;;;;;;;;;5072832;28;20024;-47
2021/06/20 05:54:53;;;;;;;4.47;3.50;;;;;;;;;;5072712;28;20037;-48
2021/06/20 05:57:22;;;;;;;8.05;4.20;;;;;;;;;;5072630;28;20517;-48
2021/06/20 05:59:49;;;;;;;6.82;3.72;;;;;;;;;;5072570;28;20036;-46
2021/06/20 06:02:15;;;;;;;6.85;4.32;;;;;;;;;;5072707;28;20503;-47
2021/06/20 06:04:42;;;;;;;7.47;4.03;;;;;;;;;;5072904;28;20092;-46
2021/06/20 06:07:08;;;;;;;7.47;3.55;;;;;;;;;;5072719;28;20085;-47
2021/06/20 06:09:38;;;;;;;7.45;3.95;;;;;;;;;;5072563;28;20104;-46
2021/06/20 06:12:05;;;;;;;5.30;3.50;;;;;;;;;;5072666;28;20086;-48
2021/06/20 06:14:31;;;;;;;3.97;3.58;;;;;;;;;;5071958;28;20052;-47
2021/06/20 06:16:57;;;;;;;5.18;3.08;;;;;;;;;;5074820;28;20020;-47
2021/06/20 06:19:24;;;;;;;4.68;3.03;;;;;;;;;;5076372;28;20025;-47
2021/06/20 06:21:50;;;;;;;3.75;3.25;;;;;;;;;;5076413;28;20019;-47
2021/06/20 06:24:16;;;;;;;3.72;3.08;;;;;;;;;;5076312;28;20414;-47
2021/06/20 06:26:42;;;;;;;3.63;3.28;;;;;;;;;;5076137;28;20073;-47
2021/06/20 06:29:08;;;;;;;3.83;3.47;;;;;;;;;;5076069;28;20028;-44
2021/06/20 06:31:36;;;;;;;3.45;3.15;;;;;;;;;;5076169;28;20031;-47
2021/06/20 06:34:05;;;;;;;4.50;3.45;;;;;;;;;;5076127;28;20041;-48
2021/06/20 06:36:31;;;;;;;3.35;3.05;;;;;;;;;;5076143;28;20013;-49
2021/06/20 06:38:57;;;;;;;5.95;3.13;;;;;;;;;;5076226;28;20376;-45
2021/06/20 06:41:23;;;;;;;4.13;3.40;;;;;;;;;;5076275;28;20070;-47
2021/06/20 06:43:49;;;;;;;5.22;3.70;;;;;;;;;;5075815;28;20124;-48
2021/06/20 06:46:15;;;;;;;3.95;3.55;;;;;;;;;;5076122;28;20025;-48
2021/06/20 06:48:41;;;;;;;3.20;2.90;;;;;;;;;;5076032;28;20028;-45
2021/06/20 06:51:07;;;;;;;6.80;3.22;;;;;;;;;;5075875;28;20032;-49
2021/06/20 06:53:33;;;;;;;7.63;3.28;;;;;;;;;;5075774;28;20392;-49
2021/06/20 06:55:59;;;;;;;5.47;3.17;;;;;;;;;;5075784;28;20418;-46
2021/06/20 06:58:25;;;;;;;4.30;3.40;;;;;;;;;;5075516;28;20033;-48
2021/06/20 07:00:52;;;;;;;4.00;3.10;;;;;;;;;;5075783;28;20108;-47
2021/06/20 07:03:18;;;;;;;5.30;3.78;;;;;;;;;;5075568;28;20131;-47
2021/06/20 07:05:44;;;;;;;4.15;3.50;;;;;;;;;;5075771;28;20097;-43
2021/06/20 07:08:11;;;;;;;3.25;2.95;;;;;;;;;;5075626;28;20017;-47
2021/06/20 07:10:37;;;;;;;5.20;3.05;;;;;;;;;;5075268;28;20020;-47
2021/06/20 07:13:03;;;;;;;3.17;2.75;;;;;;;;;;5075012;28;20036;-46
2021/06/20 07:15:30;;;;;;;6.97;3.42;;;;;;;;;;5075157;28;20048;-45
2021/06/20 07:17:56;;;;;;;4.03;3.33;;;;;;;;;;5075243;28;20404;-47
2021/06/20 07:20:23;;;;;;;5.63;4.03;;;;;;;;;;5075183;28;20028;-47
2021/06/20 07:22:52;;;;;;;11.07;7.70;;;;;;;;;;5075168;28;20044;-46
2021/06/20 07:25:22;;;;;;;6.47;4.43;;;;;;;;;;5075351;28;20063;-47
2021/06/20 07:27:49;;;;;;;4.25;3.53;;;;;;;;;;5074361;28;20429;-47
2021/06/20 07:30:16;;;;;;;3.35;2.53;;;;;;;;;;5075087;28;20021;-47
2021/06/20 07:32:43;;;;;;;3.35;2.95;;;;;;;;;;5075180;28;20020;-45
2021/06/20 07:35:10;;;;;;;4.53;2.88;;;;;;;;;;5075162;28;20037;-45
2021/06/20 07:37:36;;;;;;;4.78;2.90;;;;;;;;;;5074895;28;20017;-46
2021/06/20 07:40:04;;;;;;;2.83;2.55;;;;;;;;;;5074872;28;20388;-48
2021/06/20 07:42:30;;;;;;;3.58;3.00;;;;;;;;;;5074630;28;20023;-45
2021/06/20 07:44:57;;;;;;;4.10;3.25;;;;;;;;;;5074910;28;20020;-47
2021/06/20 07:47:23;;;;;;;3.38;3.05;;;;;;;;;;5074765;28;20530;-47
2021/06/20 07:49:49;;;;;;;3.13;2.85;;;;;;;;;;5074600;28;20032;-47
2021/06/20 07:52:15;;;;;;;3.38;3.08;;;;;;;;;;5074627;28;20499;-45
2021/06/20 07:54:49;;;;;;;5.40;2.95;;;;;;;;;;5074653;28;20039;-47
2021/06/20 07:57:16;;;;;;;4.22;3.83;;;;;;;;;;5074434;28;20430;-48
2021/06/20 07:59:42;;;;;;;8.85;6.75;;;;;;;;;;5074398;28;20166;-48
2021/06/20 08:02:08;;;;;;;2.90;2.65;;;;;;;;;;5074423;28;20499;-45
2021/06/20 08:04:34;;;;;;;91.72;59.20;;;;;;;;;;5073338;28;20016;-47
2021/06/20 08:07:00;;;;;;;6.57;5.13;;;;;;;;;;5073476;28;20117;-43
2021/06/20 08:09:26;;;;;;;8.23;5.95;;;;;;;;;;5071328;28;20435;-48
2021/06/20 08:11:52;;;;;;;6.45;4.30;;;;;;;;;;5055526;28;20223;-43
2021/06/20 08:14:19;;;;;;;30.48;21.48;;;;;;;;;;5045174;28;20060;-42
2021/06/20 08:16:45;;;;;;;44.47;29.95;;;;;;;;;;5043385;28;20677;-43
2021/06/20 08:19:12;;;;;;;19.38;14.40;;;;;;;;;;5044018;28;20393;-42
2021/06/20 08:21:39;;;;;;;13.18;9.10;;;;;;;;;;5043115;28;20094;-44
2021/06/20 08:24:05;;;;;;;11.63;7.72;;;;;;;;;;5042967;28;20028;-42
2021/06/20 08:26:31;;;;;;;3.67;2.40;;;;;;;;;;5043295;28;20021;-47
2021/06/20 08:28:58;;;;;;;7.90;3.75;;;;;;;;;;5044142;28;20956;-48
2021/06/20 08:31:24;;;;;;;13.07;9.30;;;;;;;;;;5043359;28;20017;-42
2021/06/20 08:33:50;;;;;;;7.25;5.38;;;;;;;;;;5042969;28;20072;-45
2021/06/20 08:36:18;;;;;;;25.08;17.58;;;;;;;;;;5044313;28;20369;-42
2021/06/20 08:38:44;;;;;;;47.63;30.98;;;;;;;;;;5041927;28;20031;-43
2021/06/20 08:41:13;;;;;;;12.13;6.50;;;;;;;;;;5042921;28;20024;-40
2021/06/20 08:43:39;;;;;;;6.70;4.47;;;;;;;;;;5043523;28;20042;-40
2021/06/20 08:46:05;;;;;;;13.75;9.77;;;;;;;;;;5043757;28;20036;-42
2021/06/20 08:48:33;;;;;;;3.17;2.05;;;;;;;;;;5042909;28;20099;-40
2021/06/20 08:50:59;;;;;;;6.72;4.40;;;;;;;;;;5042740;28;20029;-40
2021/06/20 08:53:25;;;;;;;5.30;3.45;;;;;;;;;;5042718;28;20067;-45
2021/06/20 08:55:52;;;;;;;3.20;2.67;;;;;;;;;;5045049;28;20029;-41
2021/06/20 08:58:21;;;;;;;4.43;1.85;;;;;;;;;;5047136;28;20032;-40
2021/06/20 09:00:48;;;;;;;1.63;1.52;;;;;;;;;;5050917;28;20039;-43
2021/06/20 09:03:14;;;;;;;2.13;1.58;;;;;;;;;;5046132;28;20092;-43
2021/06/20 09:05:40;;;;;;;8.18;5.68;;;;;;;;;;5046308;28;20031;-44
2021/06/20 09:08:16;;;;;;;27.35;14.57;;;;;;;;;;5047341;28;20137;-47
2021/06/20 09:10:42;;;;;;;13.25;9.93;;;;;;;;;;5047113;28;20288;-40
2021/06/20 09:13:08;;;;;;;29.08;17.23;;;;;;;;;;5046868;28;20024;-43
2021/06/20 09:15:34;;;;;;;4.55;3.67;;;;;;;;;;5047550;28;20040;-45
2021/06/20 09:18:02;;;;;;;6.22;4.50;;;;;;;;;;5050228;28;20121;-45
2021/06/20 09:20:34;;;;;;;13.82;8.45;;;;;;;;;;5049178;28;20685;-44
2021/06/20 09:23:01;;;;;;;14.07;7.57;;;;;;;;;;5049032;28;20017;-39
2021/06/20 09:25:28;;;;;;;25.63;11.32;;;;;;;;;;5047018;28;20151;-40
2021/06/20 09:27:57;;;;;;;21.23;10.23;;;;;;;;;;5047347;28;20021;-48
2021/06/20 09:30:25;;;;;;;9.95;5.25;;;;;;;;;;5046967;28;20389;-44
2021/06/20 09:33:05;;;;;;;11.95;4.70;;;;;;;;;;5048679;28;20032;-44
2021/06/20 09:35:42;;;;;;;7.53;5.13;;;;;;;;;;5046404;28;20484;-44
2021/06/20 09:38:09;;;;;;;13.35;8.13;;;;;;;;;;5044041;28;20431;-49
2021/06/20 09:40:36;;;;;;;16.85;12.25;;;;;;;;;;5042333;28;20435;-48
2021/06/20 09:43:11;;;;;;;1.73;1.63;;;;;;;;;;5046025;28;20380;-42
2021/06/20 09:45:41;;;;;;;2.70;2.40;;;;;;;;;;5045791;28;20028;-43
2021/06/20 09:48:07;;;;;;;9.25;6.30;;;;;;;;;;5042234;28;20425;-44
2021/06/20 09:50:34;;;;;;;3.35;2.75;;;;;;;;;;5044382;28;20055;-43
2021/06/20 09:53:01;;;;;;;3.25;1.60;;;;;;;;;;5045661;28;20059;-49
2021/06/20 09:55:27;;;;;;;1.77;1.60;;;;;;;;;;5047146;28;20355;-46
2021/06/20 09:57:53;;;;;;;1.65;1.40;;;;;;;;;;5046743;28;20121;-44
2021/06/20 10:00:19;;;;;;;1.85;1.73;;;;;;;;;;5045604;28;20032;-43
2021/06/20 10:02:47;;;;;;;9.05;6.53;;;;;;;;;;5045751;28;20466;-43
2021/06/20 10:05:13;;;;;;;5.40;4.90;;;;;;;;;;5046843;28;20021;-42
2021/06/20 10:07:39;;;;;;;1.80;1.42;;;;;;;;;;5045770;28;20757;-42
2021/06/20 10:10:06;;;;;;;17.67;12.60;;;;;;;;;;5045741;28;20029;-48
2021/06/20 10:12:33;;;;;;;1.63;1.40;;;;;;;;;;5045681;28;20520;-47
2021/06/20 10:15:00;;;;;;;2.78;2.35;;;;;;;;;;5045408;28;20079;-42
2021/06/20 10:17:29;;;;;;;4.63;3.60;;;;;;;;;;5045462;28;20545;-47
2021/06/20 10:19:56;;;;;;;11.60;6.00;;;;;;;;;;5045600;28;20025;-45
2021/06/20 10:22:22;;;;;;;10.90;7.55;;;;;;;;;;5045224;28;20078;-46
2021/06/20 10:24:53;;;;;;;4.55;2.63;;;;;;;;;;5045202;28;20753;-46
2021/06/20 10:27:38;;;;;;;27.38;18.55;;;;;;;;;;5046798;28;20040;-47
2021/06/20 10:30:16;;;;;;;8.10;4.28;;;;;;;;;;5046376;28;20890;-45
2021/06/20 10:32:44;;;;;;;3.70;3.33;;;;;;;;;;5046285;28;20137;-42
2021/06/20 10:35:15;;;;;;;2.47;2.28;;;;;;;;;;5046486;28;20390;-44
2021/06/20 10:37:41;;;;;;;;;;;;;;;;;;5045615;28;20017;-42
2021/06/20 10:40:19;;;;;;;2.88;2.13;;;;;;;;;;5045171;28;19919;-46
2021/06/20 10:42:45;;;;;;;1.70;1.60;;;;;;;;;;5045037;28;20033;-41
2021/06/20 10:45:11;;;;;;;1.65;1.40;;;;;;;;;;5044675;28;20021;-47
2021/06/20 10:47:39;;;;;;;3.22;1.60;;;;;;;;;;5044907;28;20025;-47
2021/06/20 10:50:10;;;;;;;2.53;1.92;;;;;;;;;;5045951;28;20075;-42
2021/06/20 10:52:37;;;;;;;12.70;10.00;;;;;;;;;;5044737;28;20017;-41
2021/06/20 10:55:03;;;;;;;17.00;12.45;;;;;;;;;;5044482;28;20147;-46
2021/06/20 10:57:29;;;;;;;3.08;2.67;;;;;;;;;;5045808;28;20028;-41
2021/06/20 10:59:57;;;;;;;10.20;7.78;;;;;;;;;;5045182;28;20135;-45
2021/06/20 11:02:33;;;;;;;2.35;1.88;;;;;;;;;;5043781;28;20086;-43
2021/06/20 11:04:59;;;;;;;2.22;2.00;;;;;;;;;;5044652;28;20077;-44
2021/06/20 11:07:28;;;;;;;10.40;7.40;;;;;;;;;;5046606;28;20104;-50
2021/06/20 11:09:55;;;;;;;15.27;9.73;;;;;;;;;;5044692;28;20032;-41
2021/06/20 11:12:21;;;;;;;10.30;7.90;;;;;;;;;;5044330;28;20418;-42
2021/06/20 11:14:50;;;;;;;2.75;1.80;;;;;;;;;;5058771;28;20443;-42
2021/06/20 11:17:18;;;;;;;1.50;1.40;;;;;;;;;;5045446;28;20059;-42
2021/06/20 11:19:44;;;;;;;1.73;1.45;;;;;;;;;;5044389;28;20029;-43
2021/06/20 11:22:11;;;;;;;3.97;1.92;;;;;;;;;;5044355;28;20083;-49
2021/06/20 11:24:47;;;;;;;19.35;7.65;;;;;;;;;;5044561;28;20025;-47
2021/06/20 11:27:13;;;;;;;44.95;20.83;;;;;;;;;;5043747;28;20103;-41
2021/06/20 11:29:39;;;;;;;2.10;1.90;;;;;;;;;;5044066;28;20089;-42
2021/06/20 11:32:06;;;;;;;1.85;1.50;;;;;;;;;;5044310;28;20032;-40
2021/06/20 11:34:32;;;;;;;3.00;1.35;;;;;;;;;;5043834;28;20036;-45
2021/06/20 11:36:58;;;;;;;7.03;3.05;;;;;;;;;;5045664;28;20047;-49
2021/06/20 11:39:24;;;;;;;10.38;4.35;;;;;;;;;;5044489;28;20035;-42
2021/06/20 11:41:51;;;;;;;2.63;1.65;;;;;;;;;;5044116;28;20429;-49
2021/06/20 11:44:18;;;;;;;1.52;1.27;;;;;;;;;;5044603;28;20757;-41
2021/06/20 11:46:46;;;;;;;1.90;1.67;;;;;;;;;;5045103;28;20326;-43
2021/06/20 11:49:13;;;;;;;2.47;1.55;;;;;;;;;;5043728;28;20020;-41
2021/06/20 11:51:41;;;;;;;2.65;1.60;;;;;;;;;;5043820;28;20362;-43
2021/06/20 11:54:11;;;;;;;4.43;3.58;;;;;;;;;;5043362;28;20040;-44
2021/06/20 11:56:40;;;;;;;5.45;4.05;;;;;;;;;;5043493;28;20021;-45
2021/06/20 11:59:09;;;;;;;10.80;6.78;;;;;;;;;;5044407;28;20024;-42
2021/06/20 12:01:43;;;;;;;2.60;1.80;;;;;;;;;;5043179;28;20024;-45
2021/06/20 12:04:11;;;;;;;2.40;2.08;;;;;;;;;;5044302;28;20450;-42
2021/06/20 12:06:37;;;;;;;4.30;1.52;;;;;;;;;;5044783;28;20017;-48
2021/06/20 12:09:04;;;;;;;6.82;4.97;;;;;;;;;;5043455;28;20024;-41
2021/06/20 12:11:31;;;;;;;28.70;21.27;;;;;;;;;;5042995;28;20053;-47
2021/06/20 12:13:57;;;;;;;19.10;15.40;;;;;;;;;;5042763;28;20122;-42
2021/06/20 12:16:23;;;;;;;36.10;25.35;;;;;;;;;;5043299;28;20071;-44
2021/06/20 12:18:49;;;;;;;5.80;3.83;;;;;;;;;;5042981;28;20025;-46
2021/06/20 12:21:22;;;;;;;2.47;2.28;;;;;;;;;;5044613;28;20012;-41
2021/06/20 12:23:53;;;;;;;6.15;4.65;;;;;;;;;;5043030;28;20211;-47
2021/06/20 12:26:26;;;;;;;5.20;4.50;;;;;;;;;;5043175;28;20021;-43
2021/06/20 12:28:52;;;;;;;9.38;7.70;;;;;;;;;;5044219;28;20027;-41
2021/06/20 12:31:18;;;;;;;21.60;17.50;;;;;;;;;;5043194;28;20519;-46
2021/06/20 12:33:45;;;;;;;38.67;25.85;;;;;;;;;;5043017;28;20025;-43
2021/06/20 12:36:13;;;;;;;7.28;4.97;;;;;;;;;;5042989;28;20154;-46
2021/06/20 12:38:40;;;;;;;3.63;2.78;;;;;;;;;;5042673;28;20032;-43
2021/06/20 12:41:17;;;;;;;1.67;1.50;;;;;;;;;;5042593;28;20096;-42
2021/06/20 12:43:56;;;;;;;3.05;2.40;;;;;;;;;;5042394;28;20040;-42
2021/06/20 12:46:27;;;;;;;2.20;1.70;;;;;;;;;;5042813;28;20204;-46
2021/06/20 12:48:56;;;;;;;6.40;5.00;;;;;;;;;;5043672;28;20094;-44
2021/06/20 12:51:32;;;;;;;4.43;2.58;;;;;;;;;;5042266;28;20033;-44
2021/06/20 12:54:02;;;;;;;10.68;7.28;;;;;;;;;;5042521;28;20039;-45
2021/06/20 12:56:28;;;;;;;;;;;;;;;;;;5043713;28;20307;-43
2021/06/20 12:58:58;;;;;;;7.40;5.70;;;;;;;;;;5042808;28;20371;-45
2021/06/20 13:01:24;;;;;;;6.07;4.83;;;;;;;;;;5042507;28;20574;-43
2021/06/20 13:03:51;;;;;;;2.17;1.60;;;;;;;;;;5043024;28;20053;-45
2021/06/20 13:06:17;;;;;;;10.63;7.43;;;;;;;;;;5042597;28;20025;-44
2021/06/20 13:08:43;;;;;;;4.60;4.18;;;;;;;;;;5042289;28;20024;-43
2021/06/20 13:11:09;;;;;;;3.15;2.88;;;;;;;;;;5043486;28;20039;-43
2021/06/20 13:13:35;;;;;;;25.10;16.83;;;;;;;;;;5041837;28;20091;-45
2021/06/20 13:16:01;;;;;;;10.05;5.85;;;;;;;;;;5043144;28;20398;-45
2021/06/20 13:18:27;;;;;;;133.90;100.28;;;;;;;;;;5042201;28;20774;-45
2021/06/20 13:20:56;;;;;;;69.80;52.38;;;;;;;;;;5042082;28;20318;-46
2021/06/20 13:23:22;;;;;;;99.63;64.32;;;;;;;;;;5042221;28;20104;-43
2021/06/20 13:25:52;;;;;;;16.33;12.27;;;;;;;;;;5041243;28;20032;-47
2021/06/20 13:28:19;;;;;;;2.97;2.60;;;;;;;;;;5043107;28;20141;-45
2021/06/20 13:30:45;;;;;;;3.45;2.88;;;;;;;;;;5042006;28;20033;-47
2021/06/20 13:33:11;;;;;;;4.70;3.42;;;;;;;;;;5043121;28;20028;-46
2021/06/20 13:35:37;;;;;;;4.22;2.28;;;;;;;;;;5042230;28;20060;-46
2021/06/20 13:38:04;;;;;;;1.90;1.80;;;;;;;;;;5041710;28;20086;-45
2021/06/20 13:40:30;;;;;;;1.80;1.70;;;;;;;;;;5041717;28;20025;-44
2021/06/20 13:42:56;;;;;;;2.80;2.60;;;;;;;;;;5041780;28;20040;-46
2021/06/20 13:45:24;;;;;;;2.25;2.05;;;;;;;;;;5056788;28;20852;-45
2021/06/20 13:47:51;;;;;;;3.05;2.15;;;;;;;;;;5042010;28;20033;-46
2021/06/20 13:50:18;;;;;;;2.25;1.80;;;;;;;;;;5041943;28;20039;-43
2021/06/20 13:52:44;;;;;;;2.17;1.80;;;;;;;;;;5022931;28;20032;-43
2021/06/20 13:55:11;;;;;;;2.40;2.20;;;;;;;;;;5041896;28;20102;-42
2021/06/20 13:57:38;;;;;;;2.33;2.10;;;;;;;;;;5041980;28;20067;-43
2021/06/20 14:00:05;;;;;;;1.90;1.80;;;;;;;;;;5041626;28;20079;-43
2021/06/20 14:02:33;;;;;;;1.80;1.70;;;;;;;;;;5041707;28;20021;-43
2021/06/20 14:04:59;;;;;;;3.38;1.77;;;;;;;;;;5041838;28;20044;-45
2021/06/20 14:07:25;;;;;;;1.80;1.60;;;;;;;;;;5041589;28;20346;-43
2021/06/20 14:09:51;;;;;;;2.17;1.85;;;;;;;;;;5041785;28;20055;-44
2021/06/20 14:12:20;;;;;;;4.93;2.10;;;;;;;;;;5042622;28;20017;-43
2021/06/20 14:14:46;;;;;;;4.95;4.18;;;;;;;;;;5041195;28;20947;-44
2021/06/20 14:17:12;;;;;;;2.78;2.30;;;;;;;;;;5041339;28;20036;-43
2021/06/20 14:19:38;;;;;;;4.28;3.83;;;;;;;;;;5041531;28;20024;-45
2021/06/20 14:22:04;;;;;;;8.85;4.05;;;;;;;;;;5041713;28;20017;-45
2021/06/20 14:24:31;;;;;;;4.97;4.43;;;;;;;;;;5041281;28;20029;-45
2021/06/20 14:26:57;;;;;;;7.18;6.32;;;;;;;;;;5041453;28;20028;-43
2021/06/20 14:29:23;;;;;;;223.57;174.65;;;;;;;;;;5042473;28;20025;-47
2021/06/20 14:31:49;;;;;;;16.38;13.45;;;;;;;;;;5041400;28;20032;-43
2021/06/20 14:34:15;;;;;;;2.22;2.10;;;;;;;;;;5042395;28;20039;-44
2021/06/20 14:36:41;;;;;;;3.85;3.47;;;;;;;;;;5042020;28;20044;-42
2021/06/20 14:39:07;;;;;;;3.90;3.15;;;;;;;;;;5045450;28;20028;-46